sensor_id;sensor_type;location;lat;lon;timestamp;temperature;humidity
4874;DHT22;2451;49.970;9.068;2022-10-14T00:01:35;13.10;99.90
4874;DHT22;2451;49.970;9.068;2022-10-14T00:04:01;13.10;99.90
4874;DHT22;2451;49.970;9.068;2022-10-14T00:06:28;13.10;99.90
4874;DHT22;2451;49.970;9.068;2022-10-14T00:08:55;13.00;99.90
4874;DHT22;2451;49.970;9.068;2022-10-14T00:11:26;13.00;99.90
4874;DHT22;2451;49.970;9.068;2022-10-14T00:13:57;13.00;99.90
4874;DHT22;2451;49.970;9.068;2022-10-14T00:16:26;13.00;99.90
4874;DHT22;2451;49.970;9.068;2022-10-14T00:18:52;13.00;99.90
4874;DHT22;2451;49.970;9.068;2022-10-14T00:21:18;13.00;99.90
4874;DHT22;2451;49.970;9.068;2022-10-14T00:23:45;13.10;99.90
4874;DHT22;2451;49.970;9.068;2022-10-14T00:26:26;13.10;99.90
4874;DHT22;2451;49.970;9.068;2022-10-14T00:28:52;13.10;99.90
4874;DHT22;2451;49.970;9.068;2022-10-14T00:31:18;13.10;99.90
4874;DHT22;2451;49.970;9.068;2022-10-14T00:33:44;13.10;99.90
4874;DHT22;2451;49.970;9.068;2022-10-14T00:36:12;13.10;99.90
4874;DHT22;2451;49.970;9.068;2022-10-14T00:38:38;13.10;99.90
4874;DHT22;2451;49.970;9.068;2022-10-14T00:41:05;13.10;99.90
4874;DHT22;2451;49.970;9.068;2022-10-14T00:44:03;13.10;99.90
4874;DHT22;2451;49.970;9.068;2022-10-14T00:46:35;13.10;99.90
4874;DHT22;2451;49.970;9.068;2022-10-14T00:49:09;13.10;99.90
4874;DHT22;2451;49.970;9.068;2022-10-14T00:51:38;13.10;99.90
4874;DHT22;2451;49.970;9.068;2022-10-14T00:54:04;13.10;99.90
4874;DHT22;2451;49.970;9.068;2022-10-14T00:56:30;13.10;99.90
4874;DHT22;2451;49.970;9.068;2022-10-14T00:58:56;13.10;99.90
4874;DHT22;2451;49.970;9.068;2022-10-14T01:01:22;13.10;99.90
4874;DHT22;2451;49.970;9.068;2022-10-14T01:03:48;13.10;99.90
4874;DHT22;2451;49.970;9.068;2022-10-14T01:06:39;13.00;99.90
4874;DHT22;2451;49.970;9.068;2022-10-14T01:15:05;13.00;99.90
4874;DHT22;2451;49.970;9.068;2022-10-14T01:20:56;13.10;99.90
4874;DHT22;2451;49.970;9.068;2022-10-14T01:31:20;13.10;99.90
4874;DHT22;2451;49.970;9.068;2022-10-14T01:33:54;13.10;99.90
4874;DHT22;2451;49.970;9.068;2022-10-14T01:36:29;13.10;99.90
4874;DHT22;2451;49.970;9.068;2022-10-14T01:39:11;13.10;99.90
4874;DHT22;2451;49.970;9.068;2022-10-14T01:41:59;13.10;99.90
4874;DHT22;2451;49.970;9.068;2022-10-14T01:44:26;13.10;99.90
4874;DHT22;2451;49.970;9.068;2022-10-14T01:46:54;13.10;99.90
4874;DHT22;2451;49.970;9.068;2022-10-14T01:49:48;13.10;99.90
4874;DHT22;2451;49.970;9.068;2022-10-14T01:52:19;13.10;99.90
4874;DHT22;2451;49.970;9.068;2022-10-14T01:54:48;13.10;99.90
4874;DHT22;2451;49.970;9.068;2022-10-14T01:57:21;13.10;99.90
4874;DHT22;2451;49.970;9.068;2022-10-14T01:59:48;13.10;99.90
4874;DHT22;2451;49.970;9.068;2022-10-14T02:02:14;13.10;99.90
4874;DHT22;2451;49.970;9.068;2022-10-14T02:04:41;13.10;99.90
4874;DHT22;2451;49.970;9.068;2022-10-14T02:07:17;13.10;99.90
4874;DHT22;2451;49.970;9.068;2022-10-14T02:09:55;13.10;99.90
4874;DHT22;2451;49.970;9.068;2022-10-14T02:12:52;13.10;99.90
4874;DHT22;2451;49.970;9.068;2022-10-14T02:15:48;13.10;99.90
4874;DHT22;2451;49.970;9.068;2022-10-14T02:21:04;13.10;99.90
4874;DHT22;2451;49.970;9.068;2022-10-14T02:23:38;13.00;99.90
4874;DHT22;2451;49.970;9.068;2022-10-14T02:26:07;13.00;99.90
4874;DHT22;2451;49.970;9.068;2022-10-14T02:28:33;13.00;99.90
4874;DHT22;2451;49.970;9.068;2022-10-14T02:31:04;13.00;99.90
4874;DHT22;2451;49.970;9.068;2022-10-14T02:33:34;13.00;99.90
4874;DHT22;2451;49.970;9.068;2022-10-14T02:36:02;13.00;99.90
4874;DHT22;2451;49.970;9.068;2022-10-14T02:38:30;12.90;99.90
4874;DHT22;2451;49.970;9.068;2022-10-14T02:40:59;12.90;99.90
4874;DHT22;2451;49.970;9.068;2022-10-14T02:43:26;13.00;99.90
4874;DHT22;2451;49.970;9.068;2022-10-14T02:45:55;13.00;99.90
4874;DHT22;2451;49.970;9.068;2022-10-14T02:48:22;12.90;99.90
4874;DHT22;2451;49.970;9.068;2022-10-14T02:50:47;12.90;99.90
4874;DHT22;2451;49.970;9.068;2022-10-14T02:53:13;12.90;99.90
4874;DHT22;2451;49.970;9.068;2022-10-14T02:55:40;12.90;99.90
4874;DHT22;2451;49.970;9.068;2022-10-14T02:58:06;13.00;99.90
4874;DHT22;2451;49.970;9.068;2022-10-14T03:00:31;13.00;99.90
4874;DHT22;2451;49.970;9.068;2022-10-14T03:02:57;13.00;99.90
4874;DHT22;2451;49.970;9.068;2022-10-14T03:05:22;13.00;99.90
4874;DHT22;2451;49.970;9.068;2022-10-14T03:07:48;13.00;99.90
4874;DHT22;2451;49.970;9.068;2022-10-14T03:10:13;13.00;99.90
4874;DHT22;2451;49.970;9.068;2022-10-14T03:12:39;13.00;99.90
4874;DHT22;2451;49.970;9.068;2022-10-14T03:15:05;13.00;99.90
4874;DHT22;2451;49.970;9.068;2022-10-14T03:17:31;12.90;99.90
4874;DHT22;2451;49.970;9.068;2022-10-14T03:20:00;12.90;99.90
4874;DHT22;2451;49.970;9.068;2022-10-14T03:22:26;12.90;99.90
4874;DHT22;2451;49.970;9.068;2022-10-14T03:24:51;12.90;99.90
4874;DHT22;2451;49.970;9.068;2022-10-14T03:27:17;12.90;99.90
4874;DHT22;2451;49.970;9.068;2022-10-14T03:29:42;12.90;99.90
4874;DHT22;2451;49.970;9.068;2022-10-14T03:32:08;12.90;99.90
4874;DHT22;2451;49.970;9.068;2022-10-14T03:34:33;12.90;99.90
4874;DHT22;2451;49.970;9.068;2022-10-14T03:36:59;12.90;99.90
4874;DHT22;2451;49.970;9.068;2022-10-14T03:39:24;12.90;99.90
4874;DHT22;2451;49.970;9.068;2022-10-14T03:41:50;12.90;99.90
4874;DHT22;2451;49.970;9.068;2022-10-14T03:44:16;12.90;99.90
4874;DHT22;2451;49.970;9.068;2022-10-14T03:46:41;12.90;99.90
4874;DHT22;2451;49.970;9.068;2022-10-14T03:49:07;12.90;99.90
4874;DHT22;2451;49.970;9.068;2022-10-14T03:51:32;12.90;99.90
4874;DHT22;2451;49.970;9.068;2022-10-14T03:53:58;13.00;99.90
4874;DHT22;2451;49.970;9.068;2022-10-14T03:56:23;13.00;99.90
4874;DHT22;2451;49.970;9.068;2022-10-14T03:58:49;13.00;99.90
4874;DHT22;2451;49.970;9.068;2022-10-14T04:01:14;13.00;99.90
4874;DHT22;2451;49.970;9.068;2022-10-14T04:03:42;13.00;99.90
4874;DHT22;2451;49.970;9.068;2022-10-14T04:06:11;13.00;99.90
4874;DHT22;2451;49.970;9.068;2022-10-14T04:08:39;12.90;99.90
4874;DHT22;2451;49.970;9.068;2022-10-14T04:11:05;12.90;99.90
4874;DHT22;2451;49.970;9.068;2022-10-14T04:13:31;12.90;99.90
4874;DHT22;2451;49.970;9.068;2022-10-14T04:15:56;12.90;99.90
4874;DHT22;2451;49.970;9.068;2022-10-14T04:18:26;12.90;99.90
4874;DHT22;2451;49.970;9.068;2022-10-14T04:20:52;12.90;99.90
4874;DHT22;2451;49.970;9.068;2022-10-14T04:23:18;12.90;99.90
4874;DHT22;2451;49.970;9.068;2022-10-14T04:25:43;12.90;99.90
4874;DHT22;2451;49.970;9.068;2022-10-14T04:28:09;12.90;99.90
4874;DHT22;2451;49.970;9.068;2022-10-14T04:30:34;12.90;99.90
4874;DHT22;2451;49.970;9.068;2022-10-14T04:33:00;12.90;99.90
4874;DHT22;2451;49.970;9.068;2022-10-14T04:35:25;12.90;99.90
4874;DHT22;2451;49.970;9.068;2022-10-14T04:37:51;12.90;99.90
4874;DHT22;2451;49.970;9.068;2022-10-14T04:40:16;12.90;99.90
4874;DHT22;2451;49.970;9.068;2022-10-14T04:42:44;12.90;99.90
4874;DHT22;2451;49.970;9.068;2022-10-14T04:45:10;12.90;99.90
4874;DHT22;2451;49.970;9.068;2022-10-14T04:47:35;12.90;99.90
4874;DHT22;2451;49.970;9.068;2022-10-14T04:50:01;12.90;99.90
4874;DHT22;2451;49.970;9.068;2022-10-14T04:52:27;12.90;99.90
4874;DHT22;2451;49.970;9.068;2022-10-14T04:54:52;12.90;99.90
4874;DHT22;2451;49.970;9.068;2022-10-14T04:57:18;12.90;99.90
4874;DHT22;2451;49.970;9.068;2022-10-14T04:59:43;12.90;99.90
4874;DHT22;2451;49.970;9.068;2022-10-14T05:02:09;12.90;99.90
4874;DHT22;2451;49.970;9.068;2022-10-14T05:04:34;12.90;99.90
4874;DHT22;2451;49.970;9.068;2022-10-14T05:07:00;12.90;99.90
4874;DHT22;2451;49.970;9.068;2022-10-14T05:09:25;12.90;99.90
4874;DHT22;2451;49.970;9.068;2022-10-14T05:11:51;12.90;99.90
4874;DHT22;2451;49.970;9.068;2022-10-14T05:14:17;12.90;99.90
4874;DHT22;2451;49.970;9.068;2022-10-14T05:16:42;12.90;99.90
4874;DHT22;2451;49.970;9.068;2022-10-14T05:19:08;12.80;99.90
4874;DHT22;2451;49.970;9.068;2022-10-14T05:21:33;12.80;99.90
4874;DHT22;2451;49.970;9.068;2022-10-14T05:23:59;12.80;99.90
4874;DHT22;2451;49.970;9.068;2022-10-14T05:26:24;12.80;99.90
4874;DHT22;2451;49.970;9.068;2022-10-14T05:28:51;12.80;99.90
4874;DHT22;2451;49.970;9.068;2022-10-14T05:31:16;12.80;99.90
4874;DHT22;2451;49.970;9.068;2022-10-14T05:33:42;12.80;99.90
4874;DHT22;2451;49.970;9.068;2022-10-14T05:36:08;12.80;99.90
4874;DHT22;2451;49.970;9.068;2022-10-14T05:38:33;12.80;99.90
4874;DHT22;2451;49.970;9.068;2022-10-14T05:40:59;12.80;99.90
4874;DHT22;2451;49.970;9.068;2022-10-14T05:43:25;12.80;99.90
4874;DHT22;2451;49.970;9.068;2022-10-14T05:45:51;12.80;99.90
4874;DHT22;2451;49.970;9.068;2022-10-14T05:48:17;12.80;99.90
4874;DHT22;2451;49.970;9.068;2022-10-14T05:50:43;12.80;99.90
4874;DHT22;2451;49.970;9.068;2022-10-14T05:53:09;12.80;99.90
4874;DHT22;2451;49.970;9.068;2022-10-14T05:55:36;12.80;99.90
4874;DHT22;2451;49.970;9.068;2022-10-14T05:58:02;12.90;99.90
4874;DHT22;2451;49.970;9.068;2022-10-14T06:00:28;12.90;99.90
4874;DHT22;2451;49.970;9.068;2022-10-14T06:02:56;12.90;99.90
4874;DHT22;2451;49.970;9.068;2022-10-14T06:05:22;12.90;99.90
4874;DHT22;2451;49.970;9.068;2022-10-14T06:07:47;12.90;99.90
4874;DHT22;2451;49.970;9.068;2022-10-14T06:10:13;12.90;99.90
4874;DHT22;2451;49.970;9.068;2022-10-14T06:12:38;12.90;99.90
4874;DHT22;2451;49.970;9.068;2022-10-14T06:15:04;12.90;99.90
4874;DHT22;2451;49.970;9.068;2022-10-14T06:17:30;12.90;99.90
4874;DHT22;2451;49.970;9.068;2022-10-14T06:19:55;12.90;99.90
4874;DHT22;2451;49.970;9.068;2022-10-14T06:22:21;12.90;99.90
4874;DHT22;2451;49.970;9.068;2022-10-14T06:24:47;12.90;99.90
4874;DHT22;2451;49.970;9.068;2022-10-14T06:27:12;12.90;99.90
4874;DHT22;2451;49.970;9.068;2022-10-14T06:29:38;12.90;99.90
4874;DHT22;2451;49.970;9.068;2022-10-14T06:32:08;12.90;99.90
4874;DHT22;2451;49.970;9.068;2022-10-14T06:34:34;12.90;99.90
4874;DHT22;2451;49.970;9.068;2022-10-14T06:37:00;12.90;99.90
4874;DHT22;2451;49.970;9.068;2022-10-14T06:39:26;12.90;99.90
4874;DHT22;2451;49.970;9.068;2022-10-14T06:41:52;13.00;99.90
4874;DHT22;2451;49.970;9.068;2022-10-14T06:44:21;13.00;99.90
4874;DHT22;2451;49.970;9.068;2022-10-14T06:46:46;13.00;99.90
4874;DHT22;2451;49.970;9.068;2022-10-14T06:49:12;13.10;99.90
4874;DHT22;2451;49.970;9.068;2022-10-14T06:51:38;13.10;99.90
4874;DHT22;2451;49.970;9.068;2022-10-14T06:54:04;13.10;99.90
4874;DHT22;2451;49.970;9.068;2022-10-14T06:56:30;13.20;99.90
4874;DHT22;2451;49.970;9.068;2022-10-14T06:58:56;13.20;99.90
4874;DHT22;2451;49.970;9.068;2022-10-14T07:01:22;13.30;99.90
4874;DHT22;2451;49.970;9.068;2022-10-14T07:03:48;13.30;99.90
4874;DHT22;2451;49.970;9.068;2022-10-14T07:06:14;13.30;99.90
4874;DHT22;2451;49.970;9.068;2022-10-14T07:08:39;13.40;99.90
4874;DHT22;2451;49.970;9.068;2022-10-14T07:11:05;13.40;99.90
4874;DHT22;2451;49.970;9.068;2022-10-14T07:13:31;13.40;99.90
4874;DHT22;2451;49.970;9.068;2022-10-14T07:15:58;13.50;99.90
4874;DHT22;2451;49.970;9.068;2022-10-14T07:18:24;13.50;99.90
4874;DHT22;2451;49.970;9.068;2022-10-14T07:20:49;13.50;99.90
4874;DHT22;2451;49.970;9.068;2022-10-14T07:23:15;13.60;99.90
4874;DHT22;2451;49.970;9.068;2022-10-14T07:25:41;13.60;99.90
4874;DHT22;2451;49.970;9.068;2022-10-14T07:28:06;13.60;99.90
4874;DHT22;2451;49.970;9.068;2022-10-14T07:30:32;13.60;99.90
4874;DHT22;2451;49.970;9.068;2022-10-14T07:32:58;13.70;99.90
4874;DHT22;2451;49.970;9.068;2022-10-14T07:35:24;13.60;99.90
4874;DHT22;2451;49.970;9.068;2022-10-14T07:37:52;13.70;99.90
4874;DHT22;2451;49.970;9.068;2022-10-14T07:40:18;13.70;99.90
4874;DHT22;2451;49.970;9.068;2022-10-14T07:42:43;13.70;99.90
4874;DHT22;2451;49.970;9.068;2022-10-14T07:45:10;13.80;99.90
4874;DHT22;2451;49.970;9.068;2022-10-14T07:47:44;13.80;99.90
4874;DHT22;2451;49.970;9.068;2022-10-14T07:50:11;13.80;99.90
4874;DHT22;2451;49.970;9.068;2022-10-14T07:52:37;13.80;99.90
4874;DHT22;2451;49.970;9.068;2022-10-14T07:55:04;13.80;99.90
4874;DHT22;2451;49.970;9.068;2022-10-14T07:57:30;13.80;99.90
4874;DHT22;2451;49.970;9.068;2022-10-14T07:59:55;13.80;99.90
4874;DHT22;2451;49.970;9.068;2022-10-14T08:02:21;13.90;99.90
4874;DHT22;2451;49.970;9.068;2022-10-14T08:04:51;13.90;99.90
4874;DHT22;2451;49.970;9.068;2022-10-14T08:07:17;13.90;99.90
4874;DHT22;2451;49.970;9.068;2022-10-14T08:09:43;13.90;99.90
4874;DHT22;2451;49.970;9.068;2022-10-14T08:12:09;13.90;99.90
4874;DHT22;2451;49.970;9.068;2022-10-14T08:14:35;13.90;99.90
4874;DHT22;2451;49.970;9.068;2022-10-14T08:17:00;14.00;99.90
4874;DHT22;2451;49.970;9.068;2022-10-14T08:19:26;14.00;99.90
4874;DHT22;2451;49.970;9.068;2022-10-14T08:21:52;14.00;99.90
4874;DHT22;2451;49.970;9.068;2022-10-14T08:24:18;14.00;99.90
4874;DHT22;2451;49.970;9.068;2022-10-14T08:26:54;14.10;99.90
4874;DHT22;2451;49.970;9.068;2022-10-14T08:29:21;14.10;99.90
4874;DHT22;2451;49.970;9.068;2022-10-14T08:31:47;14.20;99.90
4874;DHT22;2451;49.970;9.068;2022-10-14T08:34:13;14.30;99.90
4874;DHT22;2451;49.970;9.068;2022-10-14T08:36:39;14.30;99.90
4874;DHT22;2451;49.970;9.068;2022-10-14T08:39:05;14.30;99.90
4874;DHT22;2451;49.970;9.068;2022-10-14T08:44:24;14.40;99.90
4874;DHT22;2451;49.970;9.068;2022-10-14T08:46:59;14.40;99.90
4874;DHT22;2451;49.970;9.068;2022-10-14T08:49:36;14.50;99.90
4874;DHT22;2451;49.970;9.068;2022-10-14T08:52:22;14.60;99.90
4874;DHT22;2451;49.970;9.068;2022-10-14T08:55:13;14.60;99.90
4874;DHT22;2451;49.970;9.068;2022-10-14T08:57:50;14.70;99.90
4874;DHT22;2451;49.970;9.068;2022-10-14T09:00:18;14.80;99.90
4874;DHT22;2451;49.970;9.068;2022-10-14T09:02:51;14.80;99.90
4874;DHT22;2451;49.970;9.068;2022-10-14T09:05:23;14.90;99.90
4874;DHT22;2451;49.970;9.068;2022-10-14T09:07:52;15.00;99.90
4874;DHT22;2451;49.970;9.068;2022-10-14T09:10:32;15.00;99.90
4874;DHT22;2451;49.970;9.068;2022-10-14T09:13:06;15.00;99.90
4874;DHT22;2451;49.970;9.068;2022-10-14T09:15:37;15.10;99.90
4874;DHT22;2451;49.970;9.068;2022-10-14T09:18:29;15.10;99.90
4874;DHT22;2451;49.970;9.068;2022-10-14T09:20:56;15.20;99.90
4874;DHT22;2451;49.970;9.068;2022-10-14T09:23:25;15.10;99.90
4874;DHT22;2451;49.970;9.068;2022-10-14T09:25:57;15.00;99.90
4874;DHT22;2451;49.970;9.068;2022-10-14T09:28:35;15.00;99.90
4874;DHT22;2451;49.970;9.068;2022-10-14T09:31:07;15.00;99.90
4874;DHT22;2451;49.970;9.068;2022-10-14T09:33:34;14.90;99.90
4874;DHT22;2451;49.970;9.068;2022-10-14T09:36:05;14.90;99.90
4874;DHT22;2451;49.970;9.068;2022-10-14T09:38:31;14.90;99.90
4874;DHT22;2451;49.970;9.068;2022-10-14T09:40:58;14.90;99.90
4874;DHT22;2451;49.970;9.068;2022-10-14T09:43:24;14.90;99.90
4874;DHT22;2451;49.970;9.068;2022-10-14T09:45:58;14.90;99.90
4874;DHT22;2451;49.970;9.068;2022-10-14T09:48:45;15.00;99.90
4874;DHT22;2451;49.970;9.068;2022-10-14T09:51:31;15.10;99.90
4874;DHT22;2451;49.970;9.068;2022-10-14T09:54:02;15.10;99.90
4874;DHT22;2451;49.970;9.068;2022-10-14T09:56:38;15.20;99.90
4874;DHT22;2451;49.970;9.068;2022-10-14T09:59:16;15.20;99.90
4874;DHT22;2451;49.970;9.068;2022-10-14T10:02:09;15.20;99.90
4874;DHT22;2451;49.970;9.068;2022-10-14T10:04:44;15.20;99.90
4874;DHT22;2451;49.970;9.068;2022-10-14T10:07:32;15.30;99.90
4874;DHT22;2451;49.970;9.068;2022-10-14T10:10:16;15.30;99.90
4874;DHT22;2451;49.970;9.068;2022-10-14T10:12:41;15.30;99.90
4874;DHT22;2451;49.970;9.068;2022-10-14T10:15:17;15.40;99.90
4874;DHT22;2451;49.970;9.068;2022-10-14T10:17:43;15.40;99.90
4874;DHT22;2451;49.970;9.068;2022-10-14T10:20:26;15.50;99.90
4874;DHT22;2451;49.970;9.068;2022-10-14T10:22:54;15.50;99.90
4874;DHT22;2451;49.970;9.068;2022-10-14T10:25:23;15.60;99.90
4874;DHT22;2451;49.970;9.068;2022-10-14T10:27:51;15.70;99.90
4874;DHT22;2451;49.970;9.068;2022-10-14T10:33:08;15.90;99.90
4874;DHT22;2451;49.970;9.068;2022-10-14T10:38:57;16.30;99.90
4874;DHT22;2451;49.970;9.068;2022-10-14T10:45:06;16.60;99.90
4874;DHT22;2451;49.970;9.068;2022-10-14T10:47:49;16.70;99.90
4874;DHT22;2451;49.970;9.068;2022-10-14T10:50:41;16.80;99.90
4874;DHT22;2451;49.970;9.068;2022-10-14T10:56:34;16.80;99.90
4874;DHT22;2451;49.970;9.068;2022-10-14T10:59:33;17.00;99.90
4874;DHT22;2451;49.970;9.068;2022-10-14T11:04:56;17.20;99.90
4874;DHT22;2451;49.970;9.068;2022-10-14T11:07:33;17.30;99.90
4874;DHT22;2451;49.970;9.068;2022-10-14T11:13:50;17.20;99.90
4874;DHT22;2451;49.970;9.068;2022-10-14T11:16:26;17.30;99.90
4874;DHT22;2451;49.970;9.068;2022-10-14T11:21:47;17.30;99.90
4874;DHT22;2451;49.970;9.068;2022-10-14T11:27:14;17.30;99.90
4874;DHT22;2451;49.970;9.068;2022-10-14T11:30:16;17.30;99.90
4874;DHT22;2451;49.970;9.068;2022-10-14T11:33:21;17.20;99.90
4874;DHT22;2451;49.970;9.068;2022-10-14T11:36:08;17.10;99.90
4874;DHT22;2451;49.970;9.068;2022-10-14T11:39:01;17.00;99.90
4874;DHT22;2451;49.970;9.068;2022-10-14T11:44:37;16.90;99.90
4874;DHT22;2451;49.970;9.068;2022-10-14T11:47:12;16.90;99.90
4874;DHT22;2451;49.970;9.068;2022-10-14T11:49:59;16.80;99.90
4874;DHT22;2451;49.970;9.068;2022-10-14T11:52:37;16.80;99.90
4874;DHT22;2451;49.970;9.068;2022-10-14T11:55:21;16.80;99.90
4874;DHT22;2451;49.970;9.068;2022-10-14T11:58:03;16.80;99.90
4874;DHT22;2451;49.970;9.068;2022-10-14T12:00:31;16.70;99.90
4874;DHT22;2451;49.970;9.068;2022-10-14T12:03:50;16.80;99.90
4874;DHT22;2451;49.970;9.068;2022-10-14T12:06:45;16.80;99.90
4874;DHT22;2451;49.970;9.068;2022-10-14T12:09:29;16.80;99.90
4874;DHT22;2451;49.970;9.068;2022-10-14T12:12:03;16.80;99.90
4874;DHT22;2451;49.970;9.068;2022-10-14T12:14:48;16.80;99.90
4874;DHT22;2451;49.970;9.068;2022-10-14T12:19:47;16.50;99.90
4874;DHT22;2451;49.970;9.068;2022-10-14T12:22:16;16.60;99.90
4874;DHT22;2451;49.970;9.068;2022-10-14T12:24:49;16.50;99.90
4874;DHT22;2451;49.970;9.068;2022-10-14T12:27:17;16.50;99.90
4874;DHT22;2451;49.970;9.068;2022-10-14T12:29:46;16.50;99.90
4874;DHT22;2451;49.970;9.068;2022-10-14T12:32:22;16.50;99.90
4874;DHT22;2451;49.970;9.068;2022-10-14T12:34:53;16.50;99.90
4874;DHT22;2451;49.970;9.068;2022-10-14T12:42:28;16.40;99.90
4874;DHT22;2451;49.970;9.068;2022-10-14T12:44:56;16.40;99.90
4874;DHT22;2451;49.970;9.068;2022-10-14T12:47:31;16.40;99.90
4874;DHT22;2451;49.970;9.068;2022-10-14T12:50:26;16.30;99.90
4874;DHT22;2451;49.970;9.068;2022-10-14T12:53:01;16.20;99.90
4874;DHT22;2451;49.970;9.068;2022-10-14T12:55:29;16.20;99.90
4874;DHT22;2451;49.970;9.068;2022-10-14T12:57:59;16.10;99.90
4874;DHT22;2451;49.970;9.068;2022-10-14T13:02:53;16.00;99.90
4874;DHT22;2451;49.970;9.068;2022-10-14T13:05:38;15.90;99.90
4874;DHT22;2451;49.970;9.068;2022-10-14T13:08:10;15.80;99.90
4874;DHT22;2451;49.970;9.068;2022-10-14T13:16:55;15.60;99.90
4874;DHT22;2451;49.970;9.068;2022-10-14T13:19:02;15.60;99.90
4874;DHT22;2451;49.970;9.068;2022-10-14T13:29:35;15.40;99.90
4874;DHT22;2451;49.970;9.068;2022-10-14T13:39:44;15.20;99.90
4874;DHT22;2451;49.970;9.068;2022-10-14T13:42:47;15.20;99.90
4874;DHT22;2451;49.970;9.068;2022-10-14T13:45:11;15.20;99.90
4874;DHT22;2451;49.970;9.068;2022-10-14T13:47:40;15.10;99.90
4874;DHT22;2451;49.970;9.068;2022-10-14T13:50:07;15.10;99.90
4874;DHT22;2451;49.970;9.068;2022-10-14T13:52:34;15.00;99.90
4874;DHT22;2451;49.970;9.068;2022-10-14T13:55:15;15.00;99.90
4874;DHT22;2451;49.970;9.068;2022-10-14T13:57:41;15.00;99.90
4874;DHT22;2451;49.970;9.068;2022-10-14T14:00:29;15.00;99.90
4874;DHT22;2451;49.970;9.068;2022-10-14T14:02:56;15.00;99.90
4874;DHT22;2451;49.970;9.068;2022-10-14T14:05:22;15.00;99.90
4874;DHT22;2451;49.970;9.068;2022-10-14T14:07:49;15.00;99.90
4874;DHT22;2451;49.970;9.068;2022-10-14T14:10:22;15.00;99.90
4874;DHT22;2451;49.970;9.068;2022-10-14T14:12:48;15.00;99.90
4874;DHT22;2451;49.970;9.068;2022-10-14T14:15:22;15.00;99.90
4874;DHT22;2451;49.970;9.068;2022-10-14T14:17:48;15.00;99.90
4874;DHT22;2451;49.970;9.068;2022-10-14T14:20:21;15.00;99.90
4874;DHT22;2451;49.970;9.068;2022-10-14T14:22:47;15.00;99.90
4874;DHT22;2451;49.970;9.068;2022-10-14T14:25:27;15.10;99.90
4874;DHT22;2451;49.970;9.068;2022-10-14T14:27:55;15.10;99.90
4874;DHT22;2451;49.970;9.068;2022-10-14T14:30:28;15.10;99.90
4874;DHT22;2451;49.970;9.068;2022-10-14T14:32:56;15.10;99.90
4874;DHT22;2451;49.970;9.068;2022-10-14T14:35:22;15.10;99.90
4874;DHT22;2451;49.970;9.068;2022-10-14T14:37:48;15.00;99.90
4874;DHT22;2451;49.970;9.068;2022-10-14T14:42:46;15.00;99.90
4874;DHT22;2451;49.970;9.068;2022-10-14T14:45:19;15.00;99.90
4874;DHT22;2451;49.970;9.068;2022-10-14T14:47:51;15.00;99.90
4874;DHT22;2451;49.970;9.068;2022-10-14T14:50:22;15.00;99.90
4874;DHT22;2451;49.970;9.068;2022-10-14T14:52:50;15.00;99.90
4874;DHT22;2451;49.970;9.068;2022-10-14T14:55:42;15.00;99.90
4874;DHT22;2451;49.970;9.068;2022-10-14T15:00:45;14.90;99.90
4874;DHT22;2451;49.970;9.068;2022-10-14T15:03:11;14.90;99.90
4874;DHT22;2451;49.970;9.068;2022-10-14T15:05:37;14.90;99.90
4874;DHT22;2451;49.970;9.068;2022-10-14T15:08:03;14.90;99.90
4874;DHT22;2451;49.970;9.068;2022-10-14T15:10:29;14.90;99.90
4874;DHT22;2451;49.970;9.068;2022-10-14T15:12:59;14.90;99.90
4874;DHT22;2451;49.970;9.068;2022-10-14T15:15:29;14.90;99.90
4874;DHT22;2451;49.970;9.068;2022-10-14T15:18:13;14.90;99.90
4874;DHT22;2451;49.970;9.068;2022-10-14T15:20:41;15.00;99.90
4874;DHT22;2451;49.970;9.068;2022-10-14T15:26:19;15.00;99.90
4874;DHT22;2451;49.970;9.068;2022-10-14T15:28:46;15.00;99.90
4874;DHT22;2451;49.970;9.068;2022-10-14T15:31:26;15.00;99.90
4874;DHT22;2451;49.970;9.068;2022-10-14T15:33:52;15.00;99.90
4874;DHT22;2451;49.970;9.068;2022-10-14T15:36:17;15.00;99.90
4874;DHT22;2451;49.970;9.068;2022-10-14T15:38:43;15.00;99.90
4874;DHT22;2451;49.970;9.068;2022-10-14T15:41:08;15.00;99.90
4874;DHT22;2451;49.970;9.068;2022-10-14T15:43:34;15.00;99.90
4874;DHT22;2451;49.970;9.068;2022-10-14T15:46:00;15.00;99.90
4874;DHT22;2451;49.970;9.068;2022-10-14T15:48:52;15.00;99.90
4874;DHT22;2451;49.970;9.068;2022-10-14T15:51:22;14.90;99.90
4874;DHT22;2451;49.970;9.068;2022-10-14T15:53:48;14.90;99.90
4874;DHT22;2451;49.970;9.068;2022-10-14T15:56:14;14.90;99.90
4874;DHT22;2451;49.970;9.068;2022-10-14T15:58:45;14.90;99.90
4874;DHT22;2451;49.970;9.068;2022-10-14T16:01:15;14.90;99.90
4874;DHT22;2451;49.970;9.068;2022-10-14T16:03:41;14.90;99.90
4874;DHT22;2451;49.970;9.068;2022-10-14T16:06:07;14.90;99.90
4874;DHT22;2451;49.970;9.068;2022-10-14T16:08:33;14.90;99.90
4874;DHT22;2451;49.970;9.068;2022-10-14T16:10:58;14.90;99.90
4874;DHT22;2451;49.970;9.068;2022-10-14T16:13:24;14.90;99.90
4874;DHT22;2451;49.970;9.068;2022-10-14T16:15:59;14.90;99.90
4874;DHT22;2451;49.970;9.068;2022-10-14T16:18:25;15.00;99.90
4874;DHT22;2451;49.970;9.068;2022-10-14T16:20:51;14.90;99.90
4874;DHT22;2451;49.970;9.068;2022-10-14T16:23:21;14.90;99.90
4874;DHT22;2451;49.970;9.068;2022-10-14T16:25:49;14.90;99.90
4874;DHT22;2451;49.970;9.068;2022-10-14T16:28:16;14.90;99.90
4874;DHT22;2451;49.970;9.068;2022-10-14T16:30:44;14.90;99.90
4874;DHT22;2451;49.970;9.068;2022-10-14T16:33:19;14.90;99.90
4874;DHT22;2451;49.970;9.068;2022-10-14T16:35:50;14.90;99.90
4874;DHT22;2451;49.970;9.068;2022-10-14T16:38:16;14.90;99.90
4874;DHT22;2451;49.970;9.068;2022-10-14T16:40:42;14.90;99.90
4874;DHT22;2451;49.970;9.068;2022-10-14T16:43:09;14.80;99.90
4874;DHT22;2451;49.970;9.068;2022-10-14T16:45:34;14.80;99.90
4874;DHT22;2451;49.970;9.068;2022-10-14T16:48:00;14.80;99.90
4874;DHT22;2451;49.970;9.068;2022-10-14T16:50:26;14.80;99.90
4874;DHT22;2451;49.970;9.068;2022-10-14T16:52:52;14.80;99.90
4874;DHT22;2451;49.970;9.068;2022-10-14T16:55:36;14.80;99.90
4874;DHT22;2451;49.970;9.068;2022-10-14T16:58:02;14.80;99.90
4874;DHT22;2451;49.970;9.068;2022-10-14T17:00:27;14.80;99.90
4874;DHT22;2451;49.970;9.068;2022-10-14T17:02:53;14.80;99.90
4874;DHT22;2451;49.970;9.068;2022-10-14T17:05:19;14.70;99.90
4874;DHT22;2451;49.970;9.068;2022-10-14T17:07:45;14.80;99.90
4874;DHT22;2451;49.970;9.068;2022-10-14T17:10:10;14.70;99.90
4874;DHT22;2451;49.970;9.068;2022-10-14T17:12:37;14.80;99.90
4874;DHT22;2451;49.970;9.068;2022-10-14T17:15:04;14.80;99.90
4874;DHT22;2451;49.970;9.068;2022-10-14T17:17:30;14.70;99.90
4874;DHT22;2451;49.970;9.068;2022-10-14T17:19:56;14.70;99.90
4874;DHT22;2451;49.970;9.068;2022-10-14T17:22:22;14.70;99.90
4874;DHT22;2451;49.970;9.068;2022-10-14T17:24:48;14.70;99.90
4874;DHT22;2451;49.970;9.068;2022-10-14T17:27:14;14.70;99.90
4874;DHT22;2451;49.970;9.068;2022-10-14T17:29:41;14.70;99.90
4874;DHT22;2451;49.970;9.068;2022-10-14T17:32:07;14.70;99.90
4874;DHT22;2451;49.970;9.068;2022-10-14T17:34:32;14.70;99.90
4874;DHT22;2451;49.970;9.068;2022-10-14T17:36:58;14.70;99.90
4874;DHT22;2451;49.970;9.068;2022-10-14T17:39:24;14.70;99.90
4874;DHT22;2451;49.970;9.068;2022-10-14T17:41:50;14.70;99.90
4874;DHT22;2451;49.970;9.068;2022-10-14T17:44:15;14.70;99.90
4874;DHT22;2451;49.970;9.068;2022-10-14T17:46:41;14.70;99.90
4874;DHT22;2451;49.970;9.068;2022-10-14T17:49:07;14.60;99.90
4874;DHT22;2451;49.970;9.068;2022-10-14T17:51:34;14.70;99.90